createdAt,value
2022-08-19T00:01:52.709Z,7.80
2022-08-19T00:04:24.156Z,8.00
2022-08-19T00:06:54.414Z,8.05
2022-08-19T00:09:24.265Z,8.13
2022-08-19T00:11:53.591Z,7.95
2022-08-19T00:14:23.237Z,8.82
2022-08-19T00:16:52.556Z,7.75
2022-08-19T00:19:20.703Z,8.00
2022-08-19T00:21:48.900Z,8.50
2022-08-19T00:24:18.549Z,8.35
2022-08-19T00:26:47.486Z,8.40
2022-08-19T00:29:18.212Z,8.07
2022-08-19T00:31:47.046Z,9.05
2022-08-19T00:34:16.867Z,8.38
2022-08-19T00:36:45.903Z,8.45
2022-08-19T00:39:14.671Z,8.63
2022-08-19T00:41:47.778Z,8.68
2022-08-19T00:44:19.605Z,8.45
2022-08-19T00:46:51.639Z,9.07
2022-08-19T00:49:31.707Z,9.02
2022-08-19T00:52:09.705Z,9.80
2022-08-19T00:54:40.060Z,8.57
2022-08-19T00:57:14.389Z,11.00
2022-08-19T00:59:58.829Z,9.65
2022-08-19T01:02:33.208Z,9.60
2022-08-19T01:05:02.660Z,9.52
2022-08-19T01:07:37.586Z,9.07
2022-08-19T01:10:11.241Z,10.35
2022-08-19T01:12:41.626Z,10.43
2022-08-19T01:15:11.905Z,10.32
2022-08-19T01:17:41.950Z,10.88
2022-08-19T01:20:14.461Z,10.90
2022-08-19T01:22:47.401Z,10.57
2022-08-19T01:25:16.866Z,11.73
2022-08-19T01:27:49.631Z,12.25
2022-08-19T01:30:26.159Z,10.55
2022-08-19T01:32:55.778Z,11.15
2022-08-19T01:35:27.765Z,11.45
2022-08-19T01:38:00.251Z,11.85
2022-08-19T01:40:31.748Z,11.52
2022-08-19T01:43:00.594Z,12.18
2022-08-19T01:45:30.731Z,10.38
2022-08-19T01:48:01.607Z,10.50
2022-08-19T01:50:31.622Z,11.20
2022-08-19T01:53:02.437Z,10.52
2022-08-19T01:55:35.511Z,10.30
2022-08-19T01:58:12.953Z,11.20
2022-08-19T02:00:41.452Z,10.88
2022-08-19T02:03:11.080Z,11.88
2022-08-19T02:05:39.908Z,11.73
2022-08-19T02:08:10.146Z,10.57
2022-08-19T02:10:42.747Z,10.50
2022-08-19T02:13:11.432Z,11.02
2022-08-19T02:15:40.108Z,11.23
2022-08-19T02:18:09.158Z,10.90
2022-08-19T02:20:38.239Z,11.95
2022-08-19T02:23:13.599Z,11.55
2022-08-19T02:25:43.984Z,11.68
2022-08-19T02:28:16.618Z,10.43
2022-08-19T02:30:47.025Z,11.15
2022-08-19T02:33:16.043Z,10.65
2022-08-19T02:35:45.537Z,10.82
2022-08-19T02:38:29.236Z,10.85
2022-08-19T02:41:02.166Z,10.52
2022-08-19T02:43:34.553Z,11.25
2022-08-19T02:46:03.469Z,10.57
2022-08-19T02:48:33.873Z,11.25
2022-08-19T02:51:02.104Z,10.70
2022-08-19T02:53:30.506Z,10.90
2022-08-19T02:56:00.123Z,11.23
2022-08-19T02:58:28.858Z,11.68
2022-08-19T03:00:58.999Z,11.70
2022-08-19T03:03:27.276Z,11.13
2022-08-19T03:06:05.833Z,10.93
2022-08-19T03:08:33.967Z,10.88
2022-08-19T03:11:03.508Z,11.20
2022-08-19T03:13:31.677Z,11.25
2022-08-19T03:15:59.834Z,11.48
2022-08-19T03:18:27.930Z,11.63
2022-08-19T03:20:57.011Z,11.57
2022-08-19T03:23:25.627Z,11.55
2022-08-19T03:26:03.811Z,10.98
2022-08-19T03:28:49.473Z,11.13
2022-08-19T03:31:44.320Z,11.35
2022-08-19T03:34:19.514Z,12.02
2022-08-19T03:36:48.680Z,10.68
2022-08-19T03:39:17.670Z,10.82
2022-08-19T03:41:48.177Z,10.70
2022-08-19T03:44:21.607Z,10.32
2022-08-19T03:46:51.057Z,10.98
2022-08-19T03:49:20.509Z,11.27
2022-08-19T03:51:51.242Z,10.48
2022-08-19T03:54:21.824Z,11.07
2022-08-19T03:56:52.016Z,11.32
2022-08-19T03:59:26.929Z,10.48
2022-08-19T04:01:56.462Z,11.85
2022-08-19T04:04:24.775Z,10.90
2022-08-19T04:06:57.796Z,11.45
2022-08-19T04:09:26.733Z,12.38
2022-08-19T04:11:56.291Z,14.43
2022-08-19T04:14:29.831Z,12.50
2022-08-19T04:16:58.789Z,12.27
2022-08-19T04:19:27.887Z,13.70
2022-08-19T04:21:57.189Z,13.15
2022-08-19T04:24:26.058Z,12.38
2022-08-19T04:26:54.340Z,12.20
2022-08-19T04:29:27.914Z,12.07
2022-08-19T04:31:57.633Z,13.10
2022-08-19T04:34:27.779Z,12.60
2022-08-19T04:36:58.224Z,12.90
2022-08-19T04:39:49.343Z,11.43
2022-08-19T04:42:37.045Z,12.45
2022-08-19T04:45:09.432Z,12.07
2022-08-19T04:47:49.230Z,11.50
2022-08-19T04:50:26.657Z,11.15
2022-08-19T04:52:56.480Z,10.60
2022-08-19T04:55:26.692Z,11.70
2022-08-19T04:57:55.209Z,11.10
2022-08-19T05:00:24.816Z,10.80
2022-08-19T05:02:53.253Z,12.13
2022-08-19T05:05:21.845Z,11.55
2022-08-19T05:07:50.023Z,11.25
2022-08-19T05:10:18.362Z,14.00
2022-08-19T05:12:46.472Z,11.43
2022-08-19T05:15:14.827Z,9.73
2022-08-19T05:18:04.395Z,10.57
2022-08-19T05:20:50.083Z,9.68
2022-08-19T05:23:22.106Z,10.45
2022-08-19T05:25:51.200Z,9.82
2022-08-19T05:28:19.473Z,10.57
2022-08-19T05:30:49.097Z,9.73
2022-08-19T05:33:18.866Z,10.23
2022-08-19T05:35:47.205Z,10.07
2022-08-19T05:38:15.368Z,10.43
2022-08-19T05:40:48.811Z,10.70
2022-08-19T05:43:17.760Z,9.75
2022-08-19T05:45:46.558Z,10.05
2022-08-19T05:48:15.958Z,10.00
2022-08-19T05:50:46.355Z,11.15
2022-08-19T05:53:15.380Z,9.07
2022-08-19T05:55:43.554Z,9.98
2022-08-19T05:58:12.113Z,9.38
2022-08-19T06:00:41.164Z,10.18
2022-08-19T06:03:12.649Z,9.75
2022-08-19T06:05:51.623Z,10.18
2022-08-19T06:08:34.109Z,10.25
2022-08-19T06:11:16.272Z,9.38
2022-08-19T06:13:44.833Z,10.43
2022-08-19T06:16:13.203Z,10.05
2022-08-19T06:18:41.315Z,10.35
2022-08-19T06:21:09.411Z,9.95
2022-08-19T06:23:40.473Z,10.05
2022-08-19T06:26:08.975Z,10.50
2022-08-19T06:28:37.181Z,10.63
2022-08-19T06:31:08.984Z,10.20
2022-08-19T06:33:37.215Z,10.45
2022-08-19T06:36:06.026Z,10.00
2022-08-19T06:38:35.620Z,11.13
2022-08-19T06:41:07.371Z,10.48
2022-08-19T06:43:41.208Z,10.13
2022-08-19T06:46:14.561Z,9.55
2022-08-19T06:48:45.335Z,10.40
2022-08-19T06:51:19.521Z,11.15
2022-08-19T06:53:48.214Z,11.20
2022-08-19T06:56:21.993Z,9.98
2022-08-19T06:58:53.900Z,11.50
2022-08-19T07:01:22.805Z,10.95
2022-08-19T07:03:50.947Z,11.35
2022-08-19T07:09:13.744Z,10.57
2022-08-19T07:11:46.190Z,11.45
2022-08-19T07:14:18.914Z,11.13
2022-08-19T07:16:48.631Z,10.85
2022-08-19T07:19:18.977Z,11.05
2022-08-19T07:21:48.106Z,10.77
2022-08-19T07:24:17.305Z,11.25
2022-08-19T07:26:47.416Z,11.77
2022-08-19T07:29:22.938Z,11.07
2022-08-19T07:31:57.227Z,11.77
2022-08-19T07:34:26.296Z,10.93
2022-08-19T07:36:55.479Z,23.05
2022-08-19T07:39:26.904Z,20.60
2022-08-19T07:41:58.674Z,12.63
2022-08-19T07:44:26.972Z,12.35
2022-08-19T07:46:57.877Z,12.30
2022-08-19T07:49:26.719Z,12.40
2022-08-19T07:51:56.964Z,11.30
2022-08-19T07:54:28.112Z,10.98
2022-08-19T07:56:57.969Z,12.38
2022-08-19T07:59:27.161Z,11.98
2022-08-19T08:01:55.545Z,11.95
2022-08-19T08:04:41.477Z,13.23
2022-08-19T08:07:31.490Z,11.88
2022-08-19T08:10:02.913Z,12.63
2022-08-19T08:12:35.549Z,12.48
2022-08-19T08:15:12.716Z,11.80
2022-08-19T08:17:49.134Z,12.15
2022-08-19T08:20:21.063Z,12.68
2022-08-19T08:23:07.369Z,13.15
2022-08-19T08:25:36.332Z,12.75
2022-08-19T08:28:09.203Z,12.55
2022-08-19T08:30:45.177Z,12.52
2022-08-19T08:33:13.769Z,12.10
2022-08-19T08:35:43.938Z,11.85
2022-08-19T08:38:12.114Z,13.93
2022-08-19T08:40:45.636Z,12.90
2022-08-19T08:43:23.891Z,13.05
2022-08-19T08:45:58.547Z,13.20
2022-08-19T08:48:37.007Z,12.23
2022-08-19T08:51:09.766Z,12.57
2022-08-19T08:53:41.829Z,12.30
2022-08-19T08:56:13.467Z,13.23
2022-08-19T08:58:54.598Z,12.52
2022-08-19T09:01:23.457Z,12.38
2022-08-19T09:03:51.955Z,13.30
2022-08-19T09:06:30.063Z,12.98
2022-08-19T09:09:11.972Z,12.20
2022-08-19T09:11:51.208Z,13.55
2022-08-19T09:14:50.359Z,12.45
2022-08-19T09:17:22.013Z,24.38
2022-08-19T09:19:54.134Z,13.23
2022-08-19T09:22:26.111Z,13.20
2022-08-19T09:24:57.380Z,12.98
2022-08-19T09:27:35.618Z,11.55
2022-08-19T09:30:16.104Z,11.30
2022-08-19T09:32:45.040Z,11.73
2022-08-19T09:35:13.863Z,12.07
2022-08-19T09:37:43.685Z,11.90
2022-08-19T09:40:13.491Z,11.25
2022-08-19T09:42:50.072Z,12.00
2022-08-19T09:45:23.440Z,11.13
2022-08-19T09:47:54.805Z,10.52
2022-08-19T09:50:25.578Z,10.60
2022-08-19T09:52:59.350Z,11.70
2022-08-19T09:55:32.053Z,10.05
2022-08-19T09:58:02.854Z,11.27
2022-08-19T10:00:32.940Z,10.95
2022-08-19T10:03:01.184Z,11.85
2022-08-19T10:05:48.566Z,11.38
2022-08-19T10:08:18.469Z,10.68
2022-08-19T10:10:49.402Z,11.05
2022-08-19T10:13:22.948Z,11.88
2022-08-19T10:15:52.757Z,11.10
2022-08-19T10:18:23.641Z,10.23
2022-08-19T10:20:54.649Z,10.63
2022-08-19T10:23:24.000Z,9.98
2022-08-19T10:25:54.639Z,10.77
2022-08-19T10:28:24.053Z,10.23
2022-08-19T10:30:54.251Z,9.68
2022-08-19T10:33:38.701Z,10.50
2022-08-19T10:36:12.964Z,10.20
2022-08-19T10:38:51.244Z,10.25
2022-08-19T10:41:24.768Z,9.85
2022-08-19T10:43:55.364Z,10.43
2022-08-19T10:46:28.048Z,11.18
2022-08-19T10:48:57.046Z,10.55
2022-08-19T10:51:47.911Z,10.35
2022-08-19T10:54:17.230Z,10.32
2022-08-19T10:56:58.852Z,10.43
2022-08-19T10:59:33.810Z,10.32
2022-08-19T11:02:07.747Z,10.57
2022-08-19T11:04:36.018Z,9.95
2022-08-19T11:07:05.576Z,9.88
2022-08-19T11:09:38.879Z,10.48
2022-08-19T11:12:08.408Z,9.52
2022-08-19T11:14:36.864Z,9.60
2022-08-19T11:17:07.600Z,10.50
2022-08-19T11:19:36.578Z,9.90
2022-08-19T11:22:04.924Z,10.38
2022-08-19T11:24:33.822Z,10.60
2022-08-19T11:27:07.570Z,10.52
2022-08-19T11:29:35.846Z,9.98
2022-08-19T11:32:09.870Z,9.68
2022-08-19T11:34:38.964Z,9.88
2022-08-19T11:37:09.604Z,9.80
2022-08-19T11:39:38.900Z,9.65
2022-08-19T11:42:29.267Z,9.23
2022-08-19T11:44:57.477Z,9.65
2022-08-19T11:47:27.433Z,9.65
2022-08-19T11:49:55.833Z,9.40
2022-08-19T11:52:24.117Z,9.57
2022-08-19T11:54:52.246Z,9.93
2022-08-19T11:57:20.906Z,9.38
2022-08-19T11:59:54.446Z,9.27
2022-08-19T12:02:22.746Z,9.55
2022-08-19T12:04:52.353Z,8.45
2022-08-19T12:07:20.846Z,8.70
2022-08-19T12:09:49.672Z,9.15
2022-08-19T12:12:17.856Z,8.23
2022-08-19T12:14:47.453Z,8.65
2022-08-19T12:17:15.678Z,9.45
2022-08-19T12:19:43.854Z,8.45
2022-08-19T12:22:14.102Z,8.68
2022-08-19T12:24:42.296Z,8.13
2022-08-19T12:27:12.928Z,7.78
2022-08-19T12:29:42.504Z,7.45
2022-08-19T12:32:12.167Z,9.32
2022-08-19T12:34:41.047Z,7.45
2022-08-19T12:37:09.728Z,7.20
2022-08-19T12:39:42.464Z,6.78
2022-08-19T12:42:11.577Z,7.22
2022-08-19T12:44:41.696Z,7.82
2022-08-19T12:47:12.888Z,7.43
2022-08-19T12:49:54.204Z,7.22
2022-08-19T12:52:24.351Z,6.90
2022-08-19T12:54:55.484Z,7.57
2022-08-19T12:57:32.966Z,7.25
2022-08-19T13:00:05.494Z,6.80
2022-08-19T13:02:38.156Z,7.20
2022-08-19T13:05:09.228Z,7.95
2022-08-19T13:07:38.222Z,8.10
2022-08-19T13:10:09.616Z,7.65
2022-08-19T13:12:37.945Z,7.68
2022-08-19T13:15:11.059Z,27.50
2022-08-19T13:17:40.307Z,8.07
2022-08-19T13:20:10.307Z,8.32
2022-08-19T13:22:39.343Z,27.63
2022-08-19T13:25:10.422Z,8.25
2022-08-19T13:27:39.623Z,9.00
2022-08-19T13:30:27.783Z,8.50
2022-08-19T13:33:16.160Z,8.40
2022-08-19T13:35:48.745Z,8.80
2022-08-19T13:38:19.088Z,8.90
2022-08-19T13:40:50.680Z,9.25
2022-08-19T13:43:22.999Z,7.40
2022-08-19T13:45:57.298Z,8.60
2022-08-19T13:48:28.038Z,7.82
2022-08-19T13:50:57.063Z,7.93
2022-08-19T13:53:25.624Z,8.50
2022-08-19T13:55:55.556Z,8.52
2022-08-19T13:58:24.408Z,8.25
2022-08-19T14:00:52.553Z,8.25
2022-08-19T14:03:20.807Z,8.27
2022-08-19T14:05:49.044Z,8.68
2022-08-19T14:08:17.656Z,8.23
2022-08-19T14:10:46.347Z,8.48
2022-08-19T14:13:18.701Z,9.02
2022-08-19T14:15:48.267Z,15.90
2022-08-19T14:18:17.343Z,11.20
2022-08-19T14:20:46.173Z,9.00
2022-08-19T14:23:14.782Z,7.68
2022-08-19T14:25:43.044Z,8.15
2022-08-19T14:28:11.293Z,8.10
2022-08-19T14:30:40.840Z,7.80
2022-08-19T14:33:09.827Z,8.65
2022-08-19T14:35:38.249Z,14.88
2022-08-19T14:38:08.255Z,9.27
2022-08-19T14:40:36.325Z,8.00
2022-08-19T14:43:06.678Z,7.78
2022-08-19T14:45:38.178Z,8.38
2022-08-19T14:48:08.965Z,8.90
2022-08-19T14:50:47.393Z,8.32
2022-08-19T14:53:15.733Z,8.05
2022-08-19T14:55:44.950Z,7.88
2022-08-19T14:58:29.527Z,7.80
2022-08-19T15:00:59.665Z,8.07
2022-08-19T15:03:29.304Z,8.00
2022-08-19T15:05:58.419Z,8.05
2022-08-19T15:08:27.074Z,8.73
2022-08-19T15:10:56.137Z,7.68
2022-08-19T15:13:25.588Z,7.50
2022-08-19T15:15:53.809Z,7.65
2022-08-19T15:18:22.755Z,7.70
2022-08-19T15:20:53.076Z,7.65
2022-08-19T15:23:23.045Z,7.68
2022-08-19T15:25:54.453Z,7.50
2022-08-19T15:28:22.788Z,7.90
2022-08-19T15:30:52.370Z,7.97
2022-08-19T15:33:21.269Z,7.78
2022-08-19T15:35:52.736Z,7.93
2022-08-19T15:38:23.765Z,8.27
2022-08-19T15:40:52.405Z,8.10
2022-08-19T15:43:22.455Z,7.32
2022-08-19T15:45:50.583Z,7.57
2022-08-19T15:48:18.797Z,7.68
2022-08-19T15:50:46.912Z,7.00
2022-08-19T15:53:17.193Z,7.53
2022-08-19T15:55:48.520Z,7.30
2022-08-19T15:58:39.775Z,7.40
2022-08-19T16:01:27.207Z,7.07
2022-08-19T16:04:16.088Z,7.35
2022-08-19T16:06:47.550Z,8.20
2022-08-19T16:09:22.095Z,8.02
2022-08-19T16:11:56.726Z,7.20
2022-08-19T16:14:25.592Z,7.68
2022-08-19T16:16:57.001Z,8.05
2022-08-19T16:19:25.695Z,7.13
2022-08-19T16:21:55.910Z,7.32
2022-08-19T16:24:27.484Z,7.05
2022-08-19T16:26:56.223Z,7.55
2022-08-19T16:29:34.001Z,7.45
2022-08-19T16:32:03.043Z,8.10
2022-08-19T16:34:31.872Z,7.85
2022-08-19T16:37:01.727Z,6.93
2022-08-19T16:39:31.429Z,7.70
2022-08-19T16:42:00.227Z,7.75
2022-08-19T16:44:29.655Z,7.68
2022-08-19T16:46:59.655Z,7.70
2022-08-19T16:49:53.683Z,7.40
2022-08-19T16:52:17.243Z,8.20
2022-08-19T16:54:46.948Z,7.22
2022-08-19T16:57:15.194Z,7.50
2022-08-19T16:59:48.998Z,6.72
2022-08-19T17:02:18.401Z,7.90
2022-08-19T17:04:57.791Z,7.20
2022-08-19T17:07:26.709Z,6.85
2022-08-19T17:09:56.392Z,7.70
2022-08-19T17:12:30.781Z,8.05
2022-08-19T17:15:01.546Z,8.07
2022-08-19T17:17:30.393Z,8.40
2022-08-19T17:19:59.156Z,7.97
2022-08-19T17:22:27.436Z,7.78
2022-08-19T17:24:58.058Z,8.23
2022-08-19T17:27:27.248Z,7.38
2022-08-19T17:30:00.954Z,8.07
2022-08-19T17:32:29.168Z,8.65
2022-08-19T17:34:57.398Z,8.20
2022-08-19T17:37:25.501Z,7.57
2022-08-19T17:39:53.694Z,9.23
2022-08-19T17:42:23.377Z,7.43
2022-08-19T17:44:51.490Z,8.00
2022-08-19T17:47:21.238Z,7.95
2022-08-19T17:49:49.668Z,8.23
2022-08-19T17:52:18.445Z,7.95
2022-08-19T17:54:47.297Z,8.00
2022-08-19T17:57:15.427Z,7.93
2022-08-19T17:59:44.908Z,7.50
2022-08-19T18:02:13.167Z,7.28
2022-08-19T18:04:46.736Z,7.47
2022-08-19T18:07:17.038Z,6.80
2022-08-19T18:09:49.491Z,6.70
2022-08-19T18:12:17.988Z,6.72
2022-08-19T18:14:48.040Z,6.50
2022-08-19T18:17:19.326Z,6.32
2022-08-19T18:19:48.832Z,5.90
2022-08-19T18:22:25.000Z,6.88
2022-08-19T18:24:53.282Z,6.38
2022-08-19T18:27:21.433Z,5.80
2022-08-19T18:29:51.072Z,6.63
2022-08-19T18:32:23.644Z,5.70
2022-08-19T18:34:53.114Z,5.60
2022-08-19T18:37:22.168Z,4.97
2022-08-19T18:40:22.515Z,5.72
2022-08-19T18:43:19.354Z,5.57
2022-08-19T18:46:20.773Z,5.72
2022-08-19T18:49:08.067Z,6.10
2022-08-19T18:51:36.565Z,6.10
2022-08-19T18:54:05.271Z,5.85
2022-08-19T18:56:34.960Z,5.45
2022-08-19T18:59:03.476Z,5.93
2022-08-19T19:01:34.988Z,5.90
2022-08-19T19:04:06.008Z,5.85
2022-08-19T19:06:39.856Z,5.97
2022-08-19T19:09:09.816Z,6.45
2022-08-19T19:11:39.859Z,8.20
2022-08-19T19:14:19.189Z,6.38
2022-08-19T19:16:57.683Z,7.75
2022-08-19T19:19:26.177Z,22.33
2022-08-19T19:21:54.708Z,9.13
2022-08-19T19:24:28.068Z,9.90
2022-08-19T19:26:56.864Z,6.03
2022-08-19T19:29:26.682Z,6.75
2022-08-19T19:31:57.239Z,5.50
2022-08-19T19:34:29.170Z,5.82
2022-08-19T19:36:58.580Z,6.05
2022-08-19T19:39:34.035Z,7.55
2022-08-19T19:42:19.923Z,6.20
2022-08-19T19:44:50.400Z,8.05
2022-08-19T19:47:23.487Z,5.97
2022-08-19T19:50:13.198Z,5.85
2022-08-19T19:52:40.766Z,5.55
2022-08-19T19:55:09.594Z,5.93
2022-08-19T19:57:39.301Z,6.75
2022-08-19T20:00:09.899Z,6.57
2022-08-19T20:02:39.514Z,6.63
2022-08-19T20:05:08.222Z,7.13
2022-08-19T20:07:53.939Z,8.05
2022-08-19T20:10:22.516Z,8.93
2022-08-19T20:12:52.338Z,8.88
2022-08-19T20:15:20.550Z,7.28
2022-08-19T20:17:50.097Z,7.43
2022-08-19T20:20:19.934Z,7.32
2022-08-19T20:22:48.513Z,7.32
2022-08-19T20:25:22.290Z,7.47
2022-08-19T20:27:50.754Z,7.22
2022-08-19T20:30:21.937Z,6.82
2022-08-19T20:32:52.718Z,6.68
2022-08-19T20:35:22.320Z,7.38
2022-08-19T20:37:52.861Z,6.15
2022-08-19T20:40:24.216Z,5.97
2022-08-19T20:42:52.334Z,6.72
2022-08-19T20:45:32.959Z,6.25
2022-08-19T20:48:04.571Z,6.32
2022-08-19T20:50:33.323Z,6.18
2022-08-19T20:53:01.502Z,6.30
2022-08-19T20:55:30.567Z,6.32
2022-08-19T20:57:58.773Z,6.65
2022-08-19T21:00:29.276Z,6.47
2022-08-19T21:02:57.534Z,7.15
2022-08-19T21:05:30.380Z,6.63
2022-08-19T21:07:58.962Z,7.70
2022-08-19T21:10:27.548Z,7.15
2022-08-19T21:12:55.905Z,6.93
2022-08-19T21:15:25.095Z,7.53
2022-08-19T21:17:53.363Z,6.97
2022-08-19T21:20:21.624Z,7.38
2022-08-19T21:22:51.473Z,7.18
2022-08-19T21:25:19.791Z,6.97
2022-08-19T21:27:47.865Z,7.20
2022-08-19T21:30:16.104Z,7.07
2022-08-19T21:32:44.282Z,6.82
2022-08-19T21:35:12.403Z,7.70
2022-08-19T21:37:40.501Z,7.10
2022-08-19T21:40:11.440Z,7.00
2022-08-19T21:42:39.801Z,8.38
2022-08-19T21:45:08.815Z,7.97
2022-08-19T21:47:36.971Z,7.53
2022-08-19T21:50:06.328Z,7.90
2022-08-19T21:52:34.718Z,7.30
2022-08-19T21:55:02.972Z,7.63
2022-08-19T21:57:32.991Z,7.85
2022-08-19T22:00:01.467Z,8.00
2022-08-19T22:02:29.616Z,8.43
2022-08-19T22:04:57.709Z,7.53
2022-08-19T22:07:25.843Z,8.93
2022-08-19T22:09:53.941Z,8.00
2022-08-19T22:12:24.767Z,7.82
2022-08-19T22:14:54.902Z,8.10
2022-08-19T22:17:23.909Z,7.43
2022-08-19T22:19:52.745Z,8.07
2022-08-19T22:22:24.156Z,8.88
2022-08-19T22:24:52.445Z,8.18
2022-08-19T22:27:21.374Z,8.63
2022-08-19T22:29:52.393Z,8.70
2022-08-19T22:32:27.139Z,9.30
2022-08-19T22:34:58.012Z,9.07
2022-08-19T22:37:26.694Z,9.05
2022-08-19T22:39:54.875Z,10.15
2022-08-19T22:42:23.485Z,9.75
2022-08-19T22:44:51.853Z,10.32
2022-08-19T22:47:23.048Z,10.35
2022-08-19T22:49:55.266Z,9.80
2022-08-19T22:52:22.351Z,10.40
2022-08-19T22:54:53.371Z,12.52
2022-08-19T22:57:22.667Z,12.93
2022-08-19T22:59:52.574Z,12.52
2022-08-19T23:02:25.604Z,12.80
2022-08-19T23:04:54.187Z,11.85
2022-08-19T23:07:23.976Z,12.63
2022-08-19T23:09:52.280Z,11.68
2022-08-19T23:12:28.663Z,12.55
2022-08-19T23:14:56.748Z,12.73
2022-08-19T23:17:26.340Z,12.27
2022-08-19T23:19:54.590Z,12.15
2022-08-19T23:22:25.036Z,12.55
2022-08-19T23:24:55.956Z,12.77
2022-08-19T23:27:42.076Z,12.35
2022-08-19T23:30:26.995Z,13.82
2022-08-19T23:32:57.918Z,13.40
2022-08-19T23:35:27.057Z,14.00
2022-08-19T23:37:55.494Z,14.13
2022-08-19T23:40:23.726Z,14.23
2022-08-19T23:42:52.506Z,13.52
2022-08-19T23:45:23.902Z,13.80
2022-08-19T23:47:53.440Z,13.55
2022-08-19T23:50:23.897Z,12.98
2022-08-19T23:52:54.507Z,13.93
2022-08-19T23:55:25.673Z,13.52
2022-08-19T23:57:54.326Z,13.80
